Austintown, Ohio
Current Conditions -  °F | °C
As of 2:51 AM on Tuesday 27 Jan 2015 (Local Time) from KYNG Reporting Station
Light Snow Light Snow  
Wind Chill:   Ceiling: 1300
Heat Index: 19°   Visibility: 5mi
Dew Point: 15°   Wind: 12mph
Humidity: 85%   Direction: 320°NW
Pressure: 29.86"   Gusts: NA
Location:  41.1°N, 80.76°W
Report Text: KYNG 270751Z 32010KT 5SM -SN BR OVC013 M07/M09 A2986 RMK AO2 SLP128 P0000 T10721094
Loading
Personal Weather Stations






























Interactive Weather Map New forecast layout! Learn more

10-Day Weather Forecast

Advertisements
Track Severe Weather on mobile